TimeCST,TemperatureF,Dew PointF,Humidity,Sea Level PressureIn,VisibilityMPH,Wind Direction,Wind SpeedMPH,Gust SpeedMPH,PrecipitationIn,Events,Conditions,WindDirDegrees,DateUTC
12:15 AM,42.3,32.0,67,29.72,10.0,SW,6.9,-,N/A,,Scattered Clouds,230,2014-01-16 06:15:00
12:35 AM,41.9,31.1,66,29.71,10.0,WSW,6.9,-,N/A,,Scattered Clouds,240,2014-01-16 06:35:00
12:55 AM,45.1,30.2,56,29.71,10.0,WSW,10.4,-,N/A,,Clear,250,2014-01-16 06:55:00
1:15 AM,46.2,29.8,53,29.71,10.0,West,15.0,20.7,N/A,,Clear,260,2014-01-16 07:15:00
1:35 AM,46.9,29.1,50,29.71,10.0,West,12.7,21.9,N/A,,Clear,260,2014-01-16 07:35:00
1:55 AM,43.9,29.1,56,29.72,10.0,WNW,11.5,-,N/A,,Clear,300,2014-01-16 07:55:00
2:15 AM,42.3,30.0,62,29.72,10.0,NW,13.8,-,N/A,,Mostly Cloudy,310,2014-01-16 08:15:00
2:35 AM,40.8,29.8,65,29.72,10.0,West,16.1,-,N/A,,Mostly Cloudy,280,2014-01-16 08:35:00
2:55 AM,37.4,28.8,71,29.73,10.0,West,13.8,18.4,N/A,,Scattered Clouds,280,2014-01-16 08:55:00
3:15 AM,43.5,25.7,50,29.73,10.0,WNW,23.0,33.4,N/A,,Clear,300,2014-01-16 09:15:00
3:35 AM,43.7,25.7,49,29.72,10.0,WNW,24.2,32.2,N/A,,Scattered Clouds,300,2014-01-16 09:35:00
3:55 AM,44.1,25.5,48,29.73,10.0,WNW,28.8,34.5,N/A,,Mostly Cloudy,300,2014-01-16 09:55:00
4:15 AM,43.3,25.5,49,29.73,10.0,WNW,33.4,43.7,N/A,,Mostly Cloudy,300,2014-01-16 10:15:00
4:35 AM,42.3,23.9,48,29.74,10.0,WNW,31.1,46.0,N/A,,Scattered Clouds,300,2014-01-16 10:35:00
4:55 AM,41.2,23.9,50,29.75,10.0,WNW,25.3,32.2,N/A,,Clear,300,2014-01-16 10:55:00
5:15 AM,40.1,23.9,52,29.75,10.0,WNW,19.6,-,N/A,,Scattered Clouds,290,2014-01-16 11:15:00
5:35 AM,40.3,24.3,53,29.75,10.0,West,19.6,27.6,N/A,,Overcast,280,2014-01-16 11:35:00
5:55 AM,40.1,24.3,53,29.76,10.0,WNW,24.2,31.1,N/A,,Overcast,290,2014-01-16 11:55:00
6:15 AM,41.0,24.6,52,29.76,10.0,WNW,21.9,40.3,N/A,,Mostly Cloudy,290,2014-01-16 12:15:00
6:35 AM,41.2,23.9,50,29.77,10.0,WNW,29.9,38.0,N/A,,Mostly Cloudy,300,2014-01-16 12:35:00
6:55 AM,41.4,21.9,46,29.78,10.0,NW,27.6,48.3,N/A,,Mostly Cloudy,310,2014-01-16 12:55:00
7:15 AM,40.3,22.5,49,29.79,10.0,WNW,24.2,35.7,N/A,,Mostly Cloudy,300,2014-01-16 13:15:00
7:35 AM,40.5,22.8,49,29.78,10.0,WNW,24.2,29.9,N/A,,Overcast,290,2014-01-16 13:35:00
7:55 AM,40.1,22.6,50,29.77,10.0,West,21.9,26.5,N/A,,Overcast,280,2014-01-16 13:55:00
8:15 AM,40.1,23.0,51,29.78,10.0,West,24.2,31.1,N/A,,Mostly Cloudy,280,2014-01-16 14:15:00
8:35 AM,40.1,23.7,52,29.80,10.0,WNW,28.8,36.8,N/A,,Mostly Cloudy,300,2014-01-16 14:35:00
8:55 AM,41.0,23.0,49,29.81,10.0,NW,33.4,43.7,N/A,,Mostly Cloudy,310,2014-01-16 14:55:00
9:15 AM,41.2,22.5,47,29.82,10.0,NW,31.1,47.2,N/A,,Mostly Cloudy,310,2014-01-16 15:15:00
9:35 AM,41.9,22.6,46,29.81,10.0,NW,27.6,40.3,N/A,,Mostly Cloudy,310,2014-01-16 15:35:00
9:55 AM,40.5,24.1,52,29.81,10.0,WNW,26.5,41.4,N/A,,Mostly Cloudy,300,2014-01-16 15:55:00
10:15 AM,41.4,23.0,48,29.81,10.0,WNW,28.8,43.7,N/A,,Mostly Cloudy,300,2014-01-16 16:15:00
10:35 AM,40.8,22.3,48,29.82,10.0,WNW,34.5,43.7,N/A,,Mostly Cloudy,300,2014-01-16 16:35:00
10:55 AM,41.4,22.1,46,29.81,10.0,WNW,32.2,36.8,N/A,,Mostly Cloudy,300,2014-01-16 16:55:00
11:15 AM,40.8,22.6,48,29.82,10.0,WNW,36.8,41.4,N/A,,Mostly Cloudy,290,2014-01-16 17:15:00
11:35 AM,41.0,23.2,49,29.81,10.0,WNW,31.1,39.1,N/A,,Mostly Cloudy,300,2014-01-16 17:35:00
11:55 AM,40.6,22.6,49,29.81,10.0,NW,34.5,40.3,N/A,,Mostly Cloudy,310,2014-01-16 17:55:00
12:15 PM,39.7,23.4,52,29.80,7.0,WNW,28.8,41.4,N/A,,Mostly Cloudy,300,2014-01-16 18:15:00
12:35 PM,39.6,22.1,50,29.80,10.0,WNW,36.8,48.3,N/A,,Mostly Cloudy,300,2014-01-16 18:35:00
12:55 PM,40.5,20.3,45,29.79,10.0,NW,34.5,44.9,N/A,,Scattered Clouds,310,2014-01-16 18:55:00
1:15 PM,39.9,19.4,44,29.79,10.0,NW,32.2,43.7,N/A,,Mostly Cloudy,310,2014-01-16 19:15:00
1:35 PM,41.0,18.9,41,29.78,10.0,NW,34.5,41.4,N/A,,Mostly Cloudy,310,2014-01-16 19:35:00
1:55 PM,41.0,18.7,41,29.77,10.0,WNW,40.3,48.3,N/A,,Scattered Clouds,300,2014-01-16 19:55:00
2:35 PM,37.4,22.8,56,29.83,7.0,NW,32.2,54.1,N/A,,Scattered Clouds,320,2014-01-16 20:35:00
2:55 PM,36.1,19.8,51,29.86,10.0,NW,38.0,54.1,N/A,,Scattered Clouds,310,2014-01-16 20:55:00
3:15 PM,33.3,14.2,46,29.88,10.0,NW,40.3,52.9,N/A,,Scattered Clouds,310,2014-01-16 21:15:00
3:35 PM,29.8,13.1,50,29.91,10.0,NNW,33.4,41.4,N/A,,Clear,330,2014-01-16 21:35:00
3:55 PM,27.3,10.0,48,29.93,10.0,NW,28.8,46.0,N/A,,Clear,320,2014-01-16 21:55:00
4:15 PM,26.4,8.6,47,29.94,10.0,NW,31.1,42.6,N/A,,Clear,320,2014-01-16 22:15:00
4:35 PM,25.3,9.5,51,29.96,10.0,NW,31.1,39.1,N/A,,Clear,320,2014-01-16 22:35:00
4:55 PM,24.3,8.6,51,29.97,10.0,NNW,27.6,39.1,N/A,,Clear,330,2014-01-16 22:55:00
5:15 PM,22.3,9.3,58,29.99,10.0,NNW,24.2,34.5,N/A,,Clear,330,2014-01-16 23:15:00
5:35 PM,21.7,8.8,57,30.00,10.0,NW,28.8,36.8,N/A,,Clear,320,2014-01-16 23:35:00
5:55 PM,20.8,8.6,59,30.01,10.0,NNW,20.7,31.1,N/A,,Clear,330,2014-01-16 23:55:00
6:15 PM,20.3,7.5,58,30.02,10.0,NNW,23.0,32.2,N/A,,Clear,330,2014-01-17 00:15:00
6:35 PM,19.4,6.8,58,30.03,10.0,NNW,21.9,27.6,N/A,,Clear,340,2014-01-17 00:35:00
6:55 PM,19.0,7.3,60,30.04,10.0,NNW,25.3,35.7,N/A,,Scattered Clouds,330,2014-01-17 00:55:00
7:15 PM,19.0,8.2,63,30.04,10.0,NW,26.5,41.4,N/A,,Scattered Clouds,320,2014-01-17 01:15:00
7:35 PM,18.5,9.3,67,30.06,10.0,NW,25.3,34.5,N/A,,Mostly Cloudy,320,2014-01-17 01:35:00
7:55 PM,18.5,9.3,67,30.06,10.0,NW,23.0,35.7,N/A,,Mostly Cloudy,320,2014-01-17 01:55:00
8:15 PM,18.3,8.6,66,30.06,10.0,NW,20.7,32.2,N/A,,Scattered Clouds,320,2014-01-17 02:15:00
8:35 PM,18.5,8.1,64,30.06,10.0,NW,24.2,31.1,N/A,,Scattered Clouds,310,2014-01-17 02:35:00
8:55 PM,19.2,8.1,62,30.07,10.0,NW,26.5,36.8,N/A,,Scattered Clouds,320,2014-01-17 02:55:00
9:15 PM,19.2,8.4,63,30.07,10.0,NW,27.6,34.5,N/A,,Clear,320,2014-01-17 03:15:00
9:35 PM,19.2,8.6,63,30.08,10.0,NW,24.2,39.1,N/A,,Clear,320,2014-01-17 03:35:00
9:55 PM,19.0,8.2,63,30.08,10.0,NW,21.9,32.2,N/A,,Scattered Clouds,320,2014-01-17 03:55:00
10:15 PM,18.7,8.1,63,30.08,10.0,NW,24.2,34.5,N/A,,Scattered Clouds,320,2014-01-17 04:15:00
10:35 PM,18.3,7.9,64,30.09,10.0,NW,18.4,23.0,N/A,,Scattered Clouds,320,2014-01-17 04:35:00
10:55 PM,18.1,5.7,58,30.10,10.0,NW,16.1,27.6,N/A,,Scattered Clouds,320,2014-01-17 04:55:00
11:15 PM,16.9,5.9,62,30.09,10.0,NW,16.1,19.6,N/A,,Clear,320,2014-01-17 05:15:00
11:35 PM,16.7,5.4,61,30.09,10.0,NW,19.6,24.2,N/A,,Clear,320,2014-01-17 05:35:00
11:55 PM,16.7,2.5,54,30.10,10.0,NNW,19.6,28.8,N/A,,Clear,330,2014-01-17 05:55:00